Погода Кырджалина неделю

Кырджали, Болгария

21 - 27 июня
  • 21июня
    Сегодня
    +18°
    +33°
    Практически безоблачно
    ВремяПогодаТемператураВлажностьДавлениеВетер, м/сВероятность осадков
    00:00Ясно и безоблачно+25°C59 %739 мм1.2 м/с2 %
    03:00Ясно и безоблачно+23°C67 %738 мм0.5 м/с2 %
    06:00Ясно и безоблачно+21°C64 %739 мм0.8 м/с2 %
    09:00Ясно и безоблачно+24°C50 %739 мм1.9 м/с2 %
    12:00Ясно и безоблачно+29°C50 %739 мм3.5 м/с2 %
    15:00Практически безоблачно+32°C46 %739 мм5.3 м/с8 %
    18:00Небольшая облачность+32°C41 %737 мм4.7 м/с1 %
    21:00Ясно и безоблачно+29°C51 %737 мм3.5 м/с2 %
  • 22июня
    Суббота
    +16°
    +33°
    Ясно и безоблачно
    ВремяПогодаТемператураВлажностьДавлениеВетер, м/сВероятность осадков
    00:00Ясно и безоблачно+24°C66 %737 мм1.2 м/с2 %
    03:00Ясно и безоблачно+22°C72 %737 мм0.3 м/с2 %
    06:00Ясно и безоблачно+19°C73 %736 мм0.1 м/с2 %
    09:00Ясно и безоблачно+21°C60 %736 мм0.9 м/с2 %
    12:00Ясно и безоблачно+28°C46 %736 мм3.5 м/с2 %
    15:00Ясно и безоблачно+32°C33 %734 мм4.8 м/с2 %
    18:00Практически безоблачно+32°C25 %733 мм4.3 м/с2 %
    21:00Небольшая облачность+28°C41 %733 мм3.2 м/с2 %
  • 23июня
    Воскресенье
    +17°
    +34°
    Ясно и безоблачно
    ВремяПогодаТемператураВлажностьДавлениеВетер, м/сВероятность осадков
    00:00Облачно с прояснениями+23°C51 %733 мм1.4 м/с2 %
    03:00Ясно и безоблачно+20°C60 %733 мм0.2 м/с2 %
    06:00Ясно и безоблачно+17°C70 %732 мм0.2 м/с2 %
    09:00Ясно и безоблачно+20°C47 %733 мм0.3 м/с2 %
    12:00Ясно и безоблачно+28°C29 %733 мм2.7 м/с2 %
    15:00Ясно и безоблачно+32°C23 %732 мм3.8 м/с2 %
    18:00Практически безоблачно+33°C23 %732 мм3.7 м/с2 %
    21:00Небольшая облачность+29°C35 %732 мм3.6 м/с2 %
  • 24июня
    Понедельник
    +18°
    +35°
    Практически безоблачно
    ВремяПогодаТемператураВлажностьДавлениеВетер, м/сВероятность осадков
    00:00Практически безоблачно+24°C55 %733 мм1.3 м/с2 %
    03:00Практически безоблачно+21°C66 %733 мм0.2 м/с2 %
    06:00Ясно и безоблачно+18°C75 %733 мм0.1 м/с2 %
    09:00Ясно и безоблачно+22°C53 %733 мм0.8 м/с2 %
    12:00Ясно и безоблачно+29°C39 %733 мм3.5 м/с2 %
    15:00Практически безоблачно+33°C26 %733 мм4.5 м/с5 %
    18:00Практически безоблачно+34°C25 %732 мм4.2 м/с5 %
    21:00Ясно и безоблачно+30°C37 %733 мм2.8 м/с2 %
  • 25июня
    Вторник
    +20°
    +34°
    Практически безоблачно
    ВремяПогодаТемператураВлажностьДавлениеВетер, м/сВероятность осадков
    00:00Ясно и безоблачно+25°C42 %734 мм1.4 м/с2 %
    03:00Ясно и безоблачно+22°C54 %734 мм0.5 м/с2 %
    06:00Ясно и безоблачно+18°C54 %734 мм0.5 м/с2 %
    09:00Ясно и безоблачно+23°C38 %735 мм1.1 м/с2 %
    12:00Ясно и безоблачно+30°C37 %736 мм2.2 м/с2 %
    15:00Практически безоблачно+33°C36 %735 мм2.1 м/с7 %
    18:00Облачно с прояснениями+34°C37 %735 мм1.2 м/с15 %
    21:00Облачно с прояснениями+29°C49 %735 мм1.6 м/с2 %
Мы используем cookies
Соглашаюсь